createdAt,value
2019-04-05T00:01:05.982Z,85.63
2019-04-05T00:03:51.759Z,94.17
2019-04-05T00:06:38.214Z,88.43
2019-04-05T00:09:24.742Z,96.73
2019-04-05T00:12:10.828Z,91.70
2019-04-05T00:14:57.463Z,95.33
2019-04-05T00:17:43.453Z,96.43
2019-04-05T00:20:29.909Z,97.13
2019-04-05T00:23:17.686Z,111.83
2019-04-05T00:26:03.686Z,97.47
2019-04-05T00:28:51.772Z,103.93
2019-04-05T00:31:38.795Z,105.80
2019-04-05T00:34:25.520Z,117.30
2019-04-05T00:37:11.562Z,111.80
2019-04-05T00:39:58.039Z,110.27
2019-04-05T00:42:44.551Z,112.30
2019-04-05T00:45:31.250Z,116.60
2019-04-05T00:48:17.655Z,110.93
2019-04-05T00:51:04.055Z,115.93
2019-04-05T00:53:50.147Z,119.30
2019-04-05T00:56:36.903Z,115.47
2019-04-05T00:59:25.427Z,119.10
2019-04-05T01:02:12.363Z,123.97
2019-04-05T01:04:59.995Z,115.93
2019-04-05T01:07:46.226Z,117.50
2019-04-05T01:10:34.186Z,119.80
2019-04-05T01:13:21.259Z,130.33
2019-04-05T01:16:07.355Z,116.50
2019-04-05T01:18:53.467Z,118.00
2019-04-05T01:21:44.467Z,123.70
2019-04-05T01:24:31.030Z,122.67
2019-04-05T01:27:18.571Z,122.83
2019-04-05T01:30:06.232Z,125.17
2019-04-05T01:32:55.133Z,113.37
2019-04-05T01:35:41.630Z,118.30
2019-04-05T01:38:28.581Z,127.17
2019-04-05T01:41:14.738Z,123.63
2019-04-05T01:44:00.843Z,124.73
2019-04-05T01:46:47.658Z,119.77
2019-04-05T01:49:33.954Z,112.83
2019-04-05T01:52:20.427Z,121.60
2019-04-05T01:55:07.883Z,112.27
2019-04-05T01:57:54.031Z,118.30
2019-04-05T02:00:40.067Z,115.93
2019-04-05T02:03:26.775Z,109.13
2019-04-05T02:06:12.767Z,123.03
2019-04-05T02:08:58.915Z,113.80
2019-04-05T02:11:45.271Z,115.40
2019-04-05T02:14:32.283Z,113.43
2019-04-05T02:17:18.111Z,110.90
2019-04-05T02:20:05.688Z,109.13
2019-04-05T02:22:52.000Z,118.30
2019-04-05T02:25:38.056Z,110.63
2019-04-05T02:28:25.581Z,119.60
2019-04-05T02:31:12.023Z,103.50
2019-04-05T02:33:58.010Z,101.53
2019-04-05T02:36:44.627Z,114.37
2019-04-05T02:39:31.021Z,101.57
2019-04-05T02:42:18.342Z,117.07
2019-04-05T02:45:06.684Z,120.77
2019-04-05T02:47:57.720Z,108.40
2019-04-05T02:50:48.043Z,98.43
2019-04-05T02:53:35.926Z,104.33
2019-04-05T02:56:24.700Z,118.30
2019-04-05T02:59:12.648Z,113.80
2019-04-05T03:01:59.875Z,125.20
2019-04-05T03:04:46.085Z,106.30
2019-04-05T03:07:32.484Z,131.43
2019-04-05T03:10:54.679Z,148.80
2019-04-05T03:13:49.361Z,122.90
2019-04-05T03:16:41.626Z,124.60
2019-04-05T03:19:31.166Z,108.43
2019-04-05T03:22:18.557Z,130.40
2019-04-05T03:25:05.896Z,111.80
2019-04-05T03:27:52.293Z,113.30
2019-04-05T03:30:39.050Z,119.03
2019-04-05T03:33:25.841Z,125.23
2019-04-05T03:36:12.619Z,145.57
2019-04-05T03:38:59.284Z,109.20
2019-04-05T03:41:46.203Z,119.27
2019-04-05T03:44:32.654Z,120.13
2019-04-05T03:47:19.127Z,104.63
2019-04-05T03:50:05.940Z,121.00
2019-04-05T03:52:52.420Z,103.27
2019-04-05T03:55:38.997Z,121.17
2019-04-05T03:58:28.775Z,118.37
2019-04-05T04:01:15.539Z,108.37
2019-04-05T04:04:01.998Z,112.43
2019-04-05T04:06:48.594Z,99.07
2019-04-05T04:09:36.543Z,100.67
2019-04-05T04:12:30.244Z,110.63
2019-04-05T04:15:22.592Z,129.07
2019-04-05T04:18:09.438Z,113.03
2019-04-05T04:21:00.726Z,108.17
2019-04-05T04:23:46.921Z,99.80
2019-04-05T04:26:33.804Z,104.17
2019-04-05T04:29:21.125Z,98.33
2019-04-05T04:32:10.998Z,95.63
2019-04-05T04:34:58.623Z,88.23
2019-04-05T04:37:45.568Z,116.10
2019-04-05T04:40:35.892Z,110.73
2019-04-05T04:43:22.493Z,107.87
2019-04-05T04:46:11.745Z,96.67
2019-04-05T04:48:57.979Z,98.93
2019-04-05T04:51:44.680Z,118.60
2019-04-05T04:54:32.804Z,108.03
2019-04-05T04:57:19.340Z,101.10
2019-04-05T05:00:06.383Z,97.37
2019-04-05T05:02:53.329Z,94.67
2019-04-05T05:05:40.154Z,94.80
2019-04-05T05:08:26.471Z,110.73
2019-04-05T05:11:14.652Z,99.63
2019-04-05T05:14:01.465Z,94.73
2019-04-05T05:16:48.224Z,93.00
2019-04-05T05:19:35.548Z,92.83
2019-04-05T05:22:22.127Z,86.47
2019-04-05T05:25:08.936Z,100.17
2019-04-05T05:27:59.516Z,100.00
2019-04-05T05:30:45.912Z,93.63
2019-04-05T05:33:32.585Z,97.10
2019-04-05T05:36:20.049Z,88.57
2019-04-05T05:39:07.326Z,86.17
2019-04-05T05:41:54.768Z,102.17
2019-04-05T05:44:41.276Z,98.10
2019-04-05T05:47:27.169Z,96.17
2019-04-05T05:50:13.696Z,124.60
2019-04-05T05:53:01.375Z,109.83
2019-04-05T05:55:49.332Z,117.93
2019-04-05T05:58:36.781Z,110.10
2019-04-05T06:01:23.492Z,107.27
2019-04-05T06:04:12.861Z,93.23
2019-04-05T06:06:59.411Z,99.07
2019-04-05T06:09:49.184Z,105.33
2019-04-05T06:12:35.628Z,104.73
2019-04-05T06:15:22.145Z,100.87
2019-04-05T06:18:12.047Z,102.80
2019-04-05T06:20:58.743Z,101.20
2019-04-05T06:23:45.176Z,105.50
2019-04-05T06:26:33.009Z,116.63
2019-04-05T06:29:20.321Z,113.90
2019-04-05T06:32:07.640Z,107.60
2019-04-05T06:34:53.755Z,124.97
2019-04-05T06:37:40.981Z,93.90
2019-04-05T06:40:39.709Z,91.10
2019-04-05T06:43:15.997Z,104.17
2019-04-05T06:46:03.077Z,106.67
2019-04-05T06:48:59.188Z,98.80
2019-04-05T06:51:46.489Z,96.97
2019-04-05T06:54:32.596Z,105.20
2019-04-05T06:57:20.801Z,98.03
2019-04-05T07:00:07.602Z,91.00
2019-04-05T07:02:54.157Z,84.40
2019-04-05T07:05:42.798Z,96.83
2019-04-05T07:08:29.289Z,102.87
2019-04-05T07:11:15.320Z,97.77
2019-04-05T07:14:01.737Z,101.83
2019-04-05T07:16:48.005Z,92.23
2019-04-05T07:19:34.394Z,92.40
2019-04-05T07:22:35.544Z,94.93
2019-04-05T07:25:09.137Z,84.13
2019-04-05T07:27:55.933Z,80.93
2019-04-05T07:30:45.053Z,82.80
2019-04-05T07:33:31.393Z,76.53
2019-04-05T07:36:17.593Z,70.07
2019-04-05T07:39:06.429Z,71.47
2019-04-05T07:41:52.764Z,65.83
2019-04-05T07:44:39.419Z,66.13
2019-04-05T07:47:26.191Z,64.17
2019-04-05T07:50:13.192Z,60.27
2019-04-05T07:52:59.293Z,57.43
2019-04-05T07:55:46.728Z,48.47
2019-04-05T07:58:33.111Z,52.97
2019-04-05T08:01:19.077Z,42.73
2019-04-05T08:04:05.983Z,47.90
2019-04-05T08:06:53.868Z,48.77
2019-04-05T08:09:40.845Z,54.07
2019-04-05T08:12:28.095Z,48.77
2019-04-05T08:15:14.139Z,42.93
2019-04-05T08:18:00.424Z,41.00
2019-04-05T08:20:48.929Z,42.93
2019-04-05T08:23:34.910Z,39.53
2019-04-05T08:26:22.174Z,33.60
2019-04-05T08:29:08.794Z,21.50
2019-04-05T08:31:56.070Z,22.17
2019-04-05T08:34:42.985Z,23.83
2019-04-05T08:37:29.693Z,22.87
2019-04-05T08:40:19.894Z,23.37
2019-04-05T08:43:08.641Z,21.87
2019-04-05T08:45:57.529Z,22.80
2019-04-05T08:48:43.717Z,24.93
2019-04-05T08:51:31.876Z,28.40
2019-04-05T08:54:31.518Z,28.20
2019-04-05T08:57:07.477Z,23.63
2019-04-05T08:59:54.624Z,29.20
2019-04-05T09:02:48.094Z,21.43
2019-04-05T09:05:34.414Z,23.30
2019-04-05T09:08:21.518Z,22.37
2019-04-05T09:11:08.701Z,22.73
2019-04-05T09:13:56.881Z,20.20
2019-04-05T09:16:44.693Z,19.57
2019-04-05T09:19:31.766Z,19.53
2019-04-05T09:22:17.939Z,21.57
2019-04-05T09:25:04.381Z,21.00
2019-04-05T09:28:00.333Z,18.43
2019-04-05T09:30:56.455Z,20.97
2019-04-05T09:33:43.080Z,17.97
2019-04-05T09:36:29.439Z,17.43
2019-04-05T09:39:16.026Z,23.00
2019-04-05T09:42:03.822Z,20.33
2019-04-05T09:44:49.921Z,17.30
2019-04-05T09:47:36.174Z,18.27
2019-04-05T09:50:22.846Z,19.73
2019-04-05T09:53:09.410Z,19.57
2019-04-05T09:55:55.609Z,20.93
2019-04-05T09:58:42.741Z,23.33
2019-04-05T10:01:30.914Z,24.10
2019-04-05T10:04:35.392Z,27.03
2019-04-05T10:07:44.195Z,23.33
2019-04-05T10:10:25.333Z,24.53
2019-04-05T10:13:15.645Z,22.13
2019-04-05T10:16:04.844Z,23.23
2019-04-05T10:18:52.243Z,19.43
2019-04-05T10:21:43.634Z,20.37
2019-04-05T10:24:32.930Z,20.40
2019-04-05T10:27:23.116Z,17.97
2019-04-05T10:30:11.018Z,18.30
2019-04-05T10:33:05.722Z,19.10
2019-04-05T10:36:03.433Z,15.50
2019-04-05T10:38:49.661Z,17.07
2019-04-05T10:41:47.016Z,17.23
2019-04-05T10:44:33.106Z,17.27
2019-04-05T10:47:19.226Z,16.90
2019-04-05T10:50:08.902Z,20.40
2019-04-05T10:52:54.794Z,16.43
2019-04-05T10:55:40.964Z,17.63
2019-04-05T10:58:28.070Z,15.50
2019-04-05T11:01:15.436Z,19.67
2019-04-05T11:04:01.755Z,17.87
2019-04-05T11:06:48.300Z,17.63
2019-04-05T11:09:36.691Z,18.17
2019-04-05T11:12:25.719Z,20.30
2019-04-05T11:15:14.994Z,25.23
2019-04-05T11:18:04.534Z,27.43
2019-04-05T11:20:53.868Z,23.47
2019-04-05T11:23:42.182Z,25.23
2019-04-05T11:26:30.501Z,22.63
2019-04-05T11:29:18.744Z,25.77
2019-04-05T11:32:05.015Z,26.30
2019-04-05T11:34:52.242Z,27.27
2019-04-05T11:37:41.603Z,25.03
2019-04-05T11:40:28.107Z,27.43
2019-04-05T11:43:15.342Z,29.73
2019-04-05T11:46:03.966Z,30.90
2019-04-05T11:48:51.227Z,27.13
2019-04-05T11:51:43.163Z,33.23
2019-04-05T11:54:30.006Z,32.13
2019-04-05T11:57:16.605Z,28.80
2019-04-05T12:00:07.167Z,31.87
2019-04-05T12:03:01.592Z,34.33
2019-04-05T12:05:50.424Z,32.40
2019-04-05T12:08:39.725Z,34.03
2019-04-05T12:11:26.828Z,37.93
2019-04-05T12:14:14.187Z,28.80
2019-04-05T12:17:05.266Z,30.90
2019-04-05T12:19:49.927Z,36.73
2019-04-05T12:22:36.230Z,35.57
2019-04-05T12:25:22.994Z,31.27
2019-04-05T12:28:10.687Z,34.53
2019-04-05T12:30:57.401Z,34.87
2019-04-05T12:33:51.344Z,38.37
2019-04-05T12:36:36.554Z,37.20
2019-04-05T12:39:22.613Z,36.47
2019-04-05T12:42:11.938Z,38.03
2019-04-05T12:44:57.643Z,39.23
2019-04-05T12:47:46.080Z,41.30
2019-04-05T12:50:32.840Z,39.57
2019-04-05T12:53:29.919Z,41.93
2019-04-05T12:56:18.351Z,43.90
2019-04-05T12:59:05.143Z,41.47
2019-04-05T13:01:53.679Z,39.37
2019-04-05T13:04:45.572Z,40.87
2019-04-05T13:07:36.613Z,41.73
2019-04-05T13:10:26.128Z,41.83
2019-04-05T13:13:13.216Z,43.00
2019-04-05T13:15:59.962Z,38.53
2019-04-05T13:18:48.631Z,41.40
2019-04-05T13:21:35.337Z,42.50
2019-04-05T13:24:26.053Z,51.17
2019-04-05T13:27:14.490Z,53.30
2019-04-05T13:30:01.211Z,43.37
2019-04-05T13:32:48.202Z,46.00
2019-04-05T13:35:35.170Z,45.90
2019-04-05T13:38:21.519Z,43.27
2019-04-05T13:41:07.627Z,50.10
2019-04-05T13:43:54.658Z,50.70
2019-04-05T13:46:42.734Z,56.97
2019-04-05T13:49:31.296Z,57.20
2019-04-05T13:52:23.529Z,47.27
2019-04-05T13:55:11.292Z,52.90
2019-04-05T13:58:00.639Z,50.27
2019-04-05T14:00:48.324Z,60.10
2019-04-05T14:03:34.655Z,71.70
2019-04-05T14:06:21.895Z,61.57
2019-04-05T14:09:10.230Z,55.67
2019-04-05T14:11:59.039Z,56.57
2019-04-05T14:14:48.015Z,58.73
2019-04-05T14:17:35.611Z,63.30
2019-04-05T14:20:24.393Z,57.37
2019-04-05T14:23:13.248Z,57.20
2019-04-05T14:26:00.418Z,56.63
2019-04-05T14:28:47.119Z,50.73
2019-04-05T14:31:33.252Z,57.10
2019-04-05T14:34:23.521Z,54.37
2019-04-05T14:37:08.148Z,47.17
2019-04-05T14:39:54.671Z,41.73
2019-04-05T14:42:40.524Z,37.37
2019-04-05T14:45:27.278Z,39.57
2019-04-05T14:48:14.092Z,42.10
2019-04-05T14:51:00.679Z,40.80
2019-04-05T14:53:47.051Z,43.90
2019-04-05T14:56:33.185Z,45.13
2019-04-05T14:59:20.507Z,49.83
2019-04-05T15:02:07.715Z,40.90
2019-04-05T15:04:55.475Z,43.70
2019-04-05T15:07:42.713Z,44.07
2019-04-05T15:10:31.267Z,35.57
2019-04-05T15:13:17.726Z,40.60
2019-04-05T15:16:04.277Z,37.80
2019-04-05T15:18:51.748Z,40.63
2019-04-05T15:21:40.591Z,36.90
2019-04-05T15:24:27.363Z,40.07
2019-04-05T15:27:21.324Z,41.30
2019-04-05T15:30:06.708Z,46.57
2019-04-05T15:32:53.003Z,37.43
2019-04-05T15:35:39.358Z,39.07
2019-04-05T15:38:26.063Z,33.70
2019-04-05T15:41:15.288Z,45.87
2019-04-05T15:44:01.448Z,37.40
2019-04-05T15:46:47.787Z,38.67
2019-04-05T15:49:36.918Z,41.90
2019-04-05T15:52:22.808Z,44.80
2019-04-05T15:55:09.078Z,39.00
2019-04-05T15:57:56.180Z,42.43
2019-04-05T16:00:43.562Z,39.43
2019-04-05T16:03:33.153Z,36.77
2019-04-05T16:06:19.602Z,43.17
2019-04-05T16:09:07.320Z,40.97
2019-04-05T16:11:58.783Z,46.43
2019-04-05T16:14:45.131Z,39.43
2019-04-05T16:17:33.630Z,37.90
2019-04-05T16:20:20.574Z,36.50
2019-04-05T16:23:08.368Z,42.90
2019-04-05T16:25:54.869Z,36.07
2019-04-05T16:28:41.534Z,34.23
2019-04-05T16:31:28.052Z,38.27
2019-04-05T16:34:14.937Z,41.33
2019-04-05T16:37:00.952Z,43.27
2019-04-05T16:39:49.196Z,38.30
2019-04-05T16:42:35.646Z,41.50
2019-04-05T16:45:23.399Z,42.57
2019-04-05T16:48:10.212Z,41.67
2019-04-05T16:50:56.860Z,39.50
2019-04-05T16:54:02.873Z,36.23
2019-04-05T16:56:48.967Z,40.43
2019-04-05T16:59:36.768Z,36.13
2019-04-05T17:02:23.006Z,26.40
2019-04-05T17:05:09.604Z,26.50
2019-04-05T17:07:56.454Z,27.27
2019-04-05T17:10:43.249Z,26.97
2019-04-05T17:13:29.777Z,31.70
2019-04-05T17:16:16.412Z,30.27
2019-04-05T17:19:03.685Z,35.60
2019-04-05T17:21:51.638Z,34.80
2019-04-05T17:24:38.308Z,34.33
2019-04-05T17:27:24.672Z,34.97
2019-04-05T17:30:12.314Z,32.60
2019-04-05T17:32:58.912Z,32.87
2019-04-05T17:35:45.139Z,31.00
2019-04-05T17:38:31.465Z,34.67
2019-04-05T17:41:18.136Z,48.33
2019-04-05T17:44:04.320Z,50.30
2019-04-05T17:46:52.975Z,45.73
2019-04-05T17:49:39.229Z,52.13
2019-04-05T17:52:25.157Z,67.67
2019-04-05T17:55:12.700Z,51.43
2019-04-05T17:58:00.068Z,41.27
2019-04-05T18:00:46.712Z,43.70
2019-04-05T18:03:34.168Z,41.37
2019-04-05T18:06:20.242Z,44.37
2019-04-05T18:09:07.904Z,56.80
2019-04-05T18:11:55.792Z,46.33
2019-04-05T18:14:44.619Z,47.73
2019-04-05T18:17:31.364Z,44.83
2019-04-05T18:20:18.076Z,44.03
2019-04-05T18:23:05.097Z,45.93
2019-04-05T18:25:51.363Z,44.73
2019-04-05T18:28:43.337Z,45.20
2019-04-05T18:31:30.011Z,47.10
2019-04-05T18:34:17.496Z,49.40
2019-04-05T18:37:04.133Z,51.70
2019-04-05T18:39:52.325Z,49.57
2019-04-05T18:42:39.038Z,47.20
2019-04-05T18:45:28.779Z,50.23
2019-04-05T18:48:17.981Z,52.37
2019-04-05T18:51:07.849Z,54.67
2019-04-05T18:53:58.057Z,53.07
2019-04-05T18:56:44.185Z,61.10
2019-04-05T18:59:33.395Z,55.90
2019-04-05T19:02:21.729Z,59.33
2019-04-05T19:05:08.062Z,59.13
2019-04-05T19:08:03.193Z,54.07
2019-04-05T19:10:58.328Z,66.10
2019-04-05T19:13:45.381Z,60.43
2019-04-05T19:16:32.114Z,55.60
2019-04-05T19:19:18.946Z,66.17
2019-04-05T19:22:07.437Z,62.77
2019-04-05T19:24:54.465Z,63.93
2019-04-05T19:27:40.792Z,59.37
2019-04-05T19:50:07.046Z,65.17
2019-04-05T19:52:53.830Z,65.63
2019-04-05T19:55:40.271Z,75.10
2019-04-05T19:58:26.663Z,77.10
2019-04-05T20:01:13.472Z,64.87
2019-04-05T20:03:59.740Z,71.63
2019-04-05T20:06:46.266Z,68.60
2019-04-05T20:09:32.800Z,62.63
2019-04-05T20:12:19.289Z,71.97
2019-04-05T20:15:07.112Z,76.93
2019-04-05T20:17:53.736Z,69.80
2019-04-05T20:20:40.819Z,71.70
2019-04-05T20:23:26.833Z,65.17
2019-04-05T20:26:13.542Z,68.73
2019-04-05T20:29:00.122Z,74.73
2019-04-05T20:31:48.275Z,73.73
2019-04-05T20:34:34.641Z,85.50
2019-04-05T20:37:20.962Z,82.90
2019-04-05T20:40:07.450Z,87.40
2019-04-05T20:42:53.978Z,84.50
2019-04-05T20:45:40.249Z,94.70
2019-04-05T20:48:26.646Z,92.80
2019-04-05T20:51:16.416Z,98.00
2019-04-05T20:54:02.848Z,91.50
2019-04-05T20:56:49.823Z,90.77
2019-04-05T20:59:36.695Z,100.30
2019-04-05T21:02:22.859Z,101.63
2019-04-05T21:05:09.308Z,97.23
2019-04-05T21:07:55.952Z,113.97
2019-04-05T21:10:42.057Z,103.63
2019-04-05T21:13:28.078Z,124.03
2019-04-05T21:16:14.793Z,124.57
2019-04-05T21:19:00.894Z,130.27
2019-04-05T21:21:47.157Z,126.70
2019-04-05T21:24:36.311Z,134.00
2019-04-05T21:27:21.680Z,130.83
2019-04-05T21:30:08.498Z,113.37
2019-04-05T21:32:57.873Z,146.00
2019-04-05T21:35:46.008Z,143.33
2019-04-05T21:38:32.424Z,130.13
2019-04-05T21:41:19.754Z,136.33
2019-04-05T21:44:06.191Z,137.10
2019-04-05T21:46:52.383Z,114.37
2019-04-05T21:49:38.699Z,130.87
2019-04-05T21:52:24.723Z,135.57
2019-04-05T21:55:11.225Z,130.90
2019-04-05T21:57:58.174Z,149.83
2019-04-05T22:00:50.028Z,147.47
2019-04-05T22:03:35.981Z,153.70
2019-04-05T22:06:24.153Z,168.20
2019-04-05T22:09:10.357Z,165.27
2019-04-05T22:11:56.817Z,163.90
2019-04-05T22:14:43.609Z,173.70
2019-04-05T22:17:29.923Z,158.30
2019-04-05T22:20:16.223Z,181.93
2019-04-05T22:23:03.129Z,198.33
2019-04-05T22:25:49.425Z,181.57
2019-04-05T22:28:35.721Z,197.47
2019-04-05T22:31:22.857Z,174.80
2019-04-05T22:34:09.325Z,155.47
2019-04-05T22:36:55.845Z,180.30
2019-04-05T22:39:42.709Z,160.80
2019-04-05T22:42:28.749Z,157.80
2019-04-05T22:45:15.065Z,160.13
2019-04-05T22:48:01.346Z,165.43
2019-04-05T22:50:47.657Z,156.43
2019-04-05T22:53:33.755Z,171.60
2019-04-05T22:56:20.620Z,161.00
2019-04-05T22:59:06.954Z,166.67
2019-04-05T23:01:53.114Z,178.63
2019-04-05T23:04:39.757Z,176.87
2019-04-05T23:07:26.269Z,155.33
2019-04-05T23:10:12.580Z,160.57
2019-04-05T23:12:59.269Z,169.97
2019-04-05T23:15:45.313Z,178.57
2019-04-05T23:18:31.871Z,176.03
2019-04-05T23:21:18.270Z,175.73
2019-04-05T23:24:04.369Z,168.80
2019-04-05T23:26:50.663Z,200.77
2019-04-05T23:29:37.678Z,198.17
2019-04-05T23:32:25.000Z,171.20
2019-04-05T23:35:13.465Z,178.60
2019-04-05T23:38:00.153Z,180.97
2019-04-05T23:40:46.337Z,194.50
2019-04-05T23:43:38.094Z,189.23
2019-04-05T23:46:25.770Z,185.33
2019-04-05T23:49:12.641Z,221.33
2019-04-05T23:51:59.347Z,209.07
2019-04-05T23:54:50.926Z,202.37
2019-04-05T23:57:37.490Z,196.87
